createdAt,value
2018-07-16T00:00:45.132Z,5.73
2018-07-16T00:03:14.674Z,6.97
2018-07-16T00:05:44.042Z,7.07
2018-07-16T00:08:13.426Z,6.90
2018-07-16T00:10:42.792Z,5.50
2018-07-16T00:13:12.155Z,6.30
2018-07-16T00:15:41.593Z,6.60
2018-07-16T00:18:11.629Z,6.57
2018-07-16T00:20:41.089Z,6.87
2018-07-16T00:23:10.488Z,6.60
2018-07-16T00:25:39.895Z,5.80
2018-07-16T00:28:09.265Z,4.83
2018-07-16T00:30:39.242Z,4.73
2018-07-16T00:33:08.863Z,5.73
2018-07-16T00:35:38.005Z,5.43
2018-07-16T00:38:08.355Z,5.60
2018-07-16T00:40:37.699Z,6.00
2018-07-16T00:43:07.371Z,6.70
2018-07-16T00:45:36.800Z,5.50
2018-07-16T00:48:06.564Z,5.57
2018-07-16T00:50:35.961Z,6.23
2018-07-16T00:53:05.396Z,6.00
2018-07-16T00:55:34.818Z,5.67
2018-07-16T00:58:04.203Z,6.50
2018-07-16T01:00:33.611Z,5.90
2018-07-16T01:03:03.082Z,6.30
2018-07-16T01:05:32.447Z,5.03
2018-07-16T01:08:02.241Z,6.80
2018-07-16T01:10:31.636Z,6.13
2018-07-16T01:13:01.124Z,5.90
2018-07-16T01:15:31.256Z,6.40
2018-07-16T01:18:00.668Z,5.80
2018-07-16T01:20:30.008Z,5.10
2018-07-16T01:22:59.481Z,4.67
2018-07-16T01:25:29.210Z,4.73
2018-07-16T01:27:58.602Z,6.23
2018-07-16T01:30:28.521Z,4.63
2018-07-16T01:32:57.885Z,5.67
2018-07-16T01:35:27.323Z,5.90
2018-07-16T01:37:57.390Z,6.47
2018-07-16T01:40:27.212Z,6.40
2018-07-16T01:42:56.696Z,5.87
2018-07-16T01:45:26.312Z,6.23
2018-07-16T01:47:55.644Z,5.50
2018-07-16T01:50:26.769Z,6.20
2018-07-16T01:52:56.276Z,6.10
2018-07-16T01:55:25.689Z,5.30
2018-07-16T01:59:25.607Z,5.70
2018-07-16T02:01:55.265Z,5.87
2018-07-16T02:04:24.674Z,5.60
2018-07-16T02:06:54.063Z,5.43
2018-07-16T02:09:23.413Z,4.87
2018-07-16T02:11:52.772Z,4.67
2018-07-16T02:14:23.689Z,5.47
2018-07-16T02:16:53.115Z,5.13
2018-07-16T02:19:22.656Z,5.17
2018-07-16T02:21:52.094Z,4.87
2018-07-16T02:24:21.728Z,4.90
2018-07-16T02:26:51.195Z,6.40
2018-07-16T02:29:21.775Z,5.87
2018-07-16T02:31:51.588Z,5.70
2018-07-16T02:34:20.954Z,5.60
2018-07-16T02:36:50.377Z,6.57
2018-07-16T02:39:19.761Z,6.20
2018-07-16T02:41:49.142Z,6.80
2018-07-16T02:44:18.896Z,6.03
2018-07-16T02:46:48.644Z,6.20
2018-07-16T02:49:18.167Z,5.73
2018-07-16T02:51:47.529Z,6.70
2018-07-16T02:54:17.574Z,6.63
2018-07-16T02:56:46.964Z,5.77
2018-07-16T02:59:16.366Z,5.23
2018-07-16T03:01:46.101Z,5.83
2018-07-16T03:04:15.500Z,5.60
2018-07-16T03:06:45.320Z,4.97
2018-07-16T03:09:14.726Z,5.03
2018-07-16T03:11:44.106Z,4.90
2018-07-16T03:14:13.484Z,5.03
2018-07-16T03:16:42.874Z,5.83
2018-07-16T03:19:12.329Z,5.67
2018-07-16T03:21:42.029Z,5.90
2018-07-16T03:24:11.484Z,5.70
2018-07-16T03:26:40.874Z,5.90
2018-07-16T03:29:10.925Z,5.80
2018-07-16T03:31:40.282Z,5.97
2018-07-16T03:34:10.289Z,7.17
2018-07-16T03:36:39.896Z,5.80
2018-07-16T03:39:09.957Z,6.50
2018-07-16T03:41:39.306Z,5.70
2018-07-16T03:44:09.921Z,6.40
2018-07-16T03:46:39.260Z,5.77
2018-07-16T03:49:09.181Z,5.27
2018-07-16T03:51:38.596Z,4.60
2018-07-16T03:54:07.940Z,5.83
2018-07-16T03:56:37.911Z,5.10
2018-07-16T03:59:07.632Z,5.13
2018-07-16T04:01:37.101Z,4.70
2018-07-16T04:04:07.218Z,4.83
2018-07-16T04:06:37.574Z,4.57
2018-07-16T04:09:07.661Z,5.03
2018-07-16T04:11:37.381Z,4.97
2018-07-16T04:14:06.820Z,5.40
2018-07-16T04:16:36.722Z,4.63
2018-07-16T04:19:06.107Z,4.43
2018-07-16T04:21:35.701Z,4.67
2018-07-16T04:24:05.037Z,5.10
2018-07-16T04:26:34.380Z,4.30
2018-07-16T04:29:04.040Z,4.33
2018-07-16T04:31:34.117Z,4.73
2018-07-16T04:34:03.565Z,5.30
2018-07-16T04:36:32.944Z,4.70
2018-07-16T04:39:03.495Z,5.23
2018-07-16T04:41:32.856Z,5.17
2018-07-16T04:44:02.324Z,5.10
2018-07-16T04:46:31.685Z,4.93
2018-07-16T04:49:01.036Z,4.80
2018-07-16T04:51:30.904Z,4.30
2018-07-16T04:54:00.238Z,4.70
2018-07-16T04:56:29.628Z,5.00
2018-07-16T04:58:59.000Z,4.87
2018-07-16T05:01:28.374Z,4.30
2018-07-16T05:03:57.697Z,4.50
2018-07-16T05:06:27.638Z,4.30
2018-07-16T05:08:57.008Z,5.00
2018-07-16T05:11:26.396Z,5.10
2018-07-16T05:13:55.728Z,4.27
2018-07-16T05:16:25.988Z,5.10
2018-07-16T05:18:55.502Z,5.50
2018-07-16T05:21:24.830Z,4.10
2018-07-16T05:23:54.184Z,4.47
2018-07-16T05:26:23.580Z,4.33
2018-07-16T05:28:54.728Z,5.13
2018-07-16T05:31:24.102Z,4.30
2018-07-16T05:33:54.341Z,4.57
2018-07-16T05:36:23.888Z,4.00
2018-07-16T05:38:54.169Z,3.97
2018-07-16T05:41:23.608Z,4.67
2018-07-16T05:43:53.579Z,4.47
2018-07-16T05:46:23.343Z,4.93
2018-07-16T05:48:54.742Z,4.50
2018-07-16T05:51:24.114Z,5.10
2018-07-16T05:53:53.487Z,4.90
2018-07-16T05:56:22.842Z,4.50
2018-07-16T05:58:53.516Z,4.77
2018-07-16T06:01:22.913Z,4.63
2018-07-16T06:03:52.317Z,5.00
2018-07-16T06:06:21.777Z,4.70
2018-07-16T06:08:51.374Z,4.40
2018-07-16T06:11:21.009Z,3.80
2018-07-16T06:13:53.632Z,4.43
2018-07-16T06:16:23.550Z,5.73
2018-07-16T06:18:52.936Z,4.70
2018-07-16T06:21:22.900Z,4.57
2018-07-16T06:23:52.315Z,4.33
2018-07-16T06:26:22.449Z,4.77
2018-07-16T06:28:51.928Z,4.40
2018-07-16T06:31:21.352Z,5.37
2018-07-16T06:33:51.571Z,4.10
2018-07-16T06:36:21.729Z,5.17
2018-07-16T06:38:51.149Z,5.20
2018-07-16T06:41:20.778Z,4.20
2018-07-16T06:43:50.153Z,5.00
2018-07-16T06:46:19.827Z,4.77
2018-07-16T06:48:49.237Z,4.87
2018-07-16T06:51:18.945Z,4.40
2018-07-16T06:53:48.891Z,5.80
2018-07-16T06:56:18.281Z,4.97
2018-07-16T06:58:47.665Z,5.03
2018-07-16T07:01:17.128Z,4.53
2018-07-16T07:03:46.968Z,4.80
2018-07-16T07:06:16.309Z,5.17
2018-07-16T07:08:45.734Z,4.50
2018-07-16T07:11:15.084Z,4.30
2018-07-16T07:13:45.100Z,5.60
2018-07-16T07:16:14.445Z,4.90
2018-07-16T07:18:43.784Z,4.93
2018-07-16T07:21:14.496Z,4.00
2018-07-16T07:23:44.082Z,5.57
2018-07-16T07:26:13.733Z,4.37
2018-07-16T07:28:44.798Z,4.93
2018-07-16T07:31:14.191Z,4.23
2018-07-16T07:33:43.558Z,4.87
2018-07-16T07:36:13.001Z,4.27
2018-07-16T07:38:42.725Z,4.80
2018-07-16T07:41:12.070Z,4.73
2018-07-16T07:43:41.479Z,5.53
2018-07-16T07:46:10.928Z,4.90
2018-07-16T07:48:40.298Z,4.40
2018-07-16T07:51:09.694Z,5.43
2018-07-16T07:53:39.067Z,4.50
2018-07-16T07:56:08.485Z,5.53
2018-07-16T07:58:37.852Z,4.63
2018-07-16T08:01:07.725Z,5.67
2018-07-16T08:03:37.112Z,5.47
2018-07-16T08:06:07.980Z,4.70
2018-07-16T08:08:38.174Z,4.73
2018-07-16T08:11:07.647Z,5.37
2018-07-16T08:13:37.870Z,4.80
2018-07-16T08:16:07.496Z,5.70
2018-07-16T08:18:37.107Z,4.27
2018-07-16T08:21:07.072Z,4.97
2018-07-16T08:23:36.338Z,5.30
2018-07-16T08:26:06.174Z,5.10
2018-07-16T08:28:35.757Z,5.63
2018-07-16T08:31:05.601Z,5.53
2018-07-16T08:33:35.225Z,5.07
2018-07-16T08:36:04.811Z,4.90
2018-07-16T08:38:34.976Z,5.10
2018-07-16T08:41:04.535Z,5.17
2018-07-16T08:43:38.080Z,5.30
2018-07-16T08:46:08.520Z,5.00
2018-07-16T08:48:38.041Z,5.20
2018-07-16T08:51:07.909Z,6.23
2018-07-16T08:53:37.335Z,4.50
2018-07-16T08:56:06.917Z,5.20
2018-07-16T08:58:36.293Z,4.87
2018-07-16T09:01:05.657Z,5.13
2018-07-16T09:03:34.018Z,4.93
2018-07-16T09:06:05.390Z,5.43
2018-07-16T09:08:36.538Z,5.50
2018-07-16T09:11:07.083Z,5.17
2018-07-16T09:13:36.880Z,5.47
2018-07-16T09:16:06.519Z,5.20
2018-07-16T09:18:35.937Z,4.87
2018-07-16T09:21:06.039Z,5.60
2018-07-16T09:23:35.455Z,5.30
2018-07-16T09:26:04.995Z,4.80
2018-07-16T09:28:34.434Z,5.10
2018-07-16T09:31:05.597Z,4.80
2018-07-16T09:33:36.449Z,5.27
2018-07-16T09:36:05.969Z,4.33
2018-07-16T09:38:35.389Z,5.70
2018-07-16T09:41:04.802Z,4.70
2018-07-16T09:43:34.247Z,5.40
2018-07-16T09:46:03.608Z,4.90
2018-07-16T09:48:32.965Z,4.40
2018-07-16T09:51:02.966Z,4.87
2018-07-16T09:53:32.348Z,4.70
2018-07-16T09:56:01.783Z,4.60
2018-07-16T09:58:31.385Z,5.13
2018-07-16T10:03:11.570Z,5.30
2018-07-16T10:05:41.476Z,4.80
2018-07-16T10:08:10.919Z,4.90
2018-07-16T10:13:29.927Z,5.20
2018-07-16T10:16:00.259Z,5.40
2018-07-16T10:18:30.590Z,5.30
2018-07-16T10:21:00.752Z,5.03
2018-07-16T10:23:30.101Z,4.80
2018-07-16T10:26:00.436Z,5.50
2018-07-16T10:28:30.120Z,5.30
2018-07-16T10:30:58.497Z,5.30
2018-07-16T10:33:27.713Z,4.90
2018-07-16T10:35:57.136Z,5.97
2018-07-16T10:38:26.513Z,5.37
2018-07-16T10:40:55.909Z,5.47
2018-07-16T10:43:25.240Z,6.13
2018-07-16T10:45:54.605Z,5.70
2018-07-16T10:48:24.044Z,5.63
2018-07-16T10:50:53.468Z,6.00
2018-07-16T10:53:22.837Z,5.77
2018-07-16T10:55:52.197Z,4.83
2018-07-16T10:58:21.596Z,4.70
2018-07-16T11:00:50.981Z,5.43
2018-07-16T11:03:20.360Z,5.53
2018-07-16T11:05:49.795Z,5.33
2018-07-16T11:08:19.162Z,6.00
2018-07-16T11:10:49.078Z,5.40
2018-07-16T11:13:18.486Z,5.70
2018-07-16T11:15:48.335Z,4.73
2018-07-16T11:18:17.729Z,4.47
2018-07-16T11:20:47.892Z,4.27
2018-07-16T11:23:18.046Z,4.60
2018-07-16T11:25:52.727Z,4.37
2018-07-16T11:28:22.543Z,4.47
2018-07-16T11:30:52.408Z,4.40
2018-07-16T11:33:22.196Z,4.60
2018-07-16T11:35:51.673Z,4.63
2018-07-16T11:38:22.783Z,4.77
2018-07-16T11:40:52.495Z,4.37
2018-07-16T11:43:22.057Z,4.00
2018-07-16T11:45:51.651Z,4.80
2018-07-16T11:48:21.034Z,4.90
2018-07-16T11:50:50.457Z,5.00
2018-07-16T11:53:19.878Z,5.13
2018-07-16T11:55:49.848Z,4.47
2018-07-16T11:58:19.241Z,4.13
2018-07-16T12:00:48.721Z,4.97
2018-07-16T12:03:18.136Z,4.30
2018-07-16T12:05:47.712Z,4.07
2018-07-16T12:08:17.316Z,5.20
2018-07-16T12:10:46.676Z,4.53
2018-07-16T12:13:16.032Z,4.33
2018-07-16T12:15:45.388Z,3.80
2018-07-16T12:18:15.446Z,4.30
2018-07-16T12:20:44.792Z,3.57
2018-07-16T12:23:14.140Z,4.70
2018-07-16T12:25:43.508Z,4.30
2018-07-16T12:28:12.857Z,4.30
2018-07-16T12:30:42.270Z,4.33
2018-07-16T12:33:11.615Z,4.13
2018-07-16T12:35:40.968Z,4.37
2018-07-16T12:38:10.337Z,3.70
2018-07-16T12:40:40.472Z,4.23
2018-07-16T12:43:10.477Z,4.50
2018-07-16T12:45:39.903Z,4.30
2018-07-16T12:48:09.306Z,5.13
2018-07-16T12:50:38.922Z,4.27
2018-07-16T12:53:08.285Z,4.00
2018-07-16T12:55:37.718Z,3.73
2018-07-16T12:58:07.934Z,3.80
2018-07-16T13:00:37.308Z,4.30
2018-07-16T13:03:06.710Z,4.00
2018-07-16T13:05:36.068Z,4.23
2018-07-16T13:08:05.447Z,3.90
2018-07-16T13:10:34.785Z,4.37
2018-07-16T13:13:04.640Z,3.53
2018-07-16T13:15:34.021Z,4.43
2018-07-16T13:18:03.460Z,3.80
2018-07-16T13:20:32.869Z,4.07
2018-07-16T13:23:02.723Z,3.43
2018-07-16T13:25:32.109Z,4.20
2018-07-16T13:28:01.729Z,4.30
2018-07-16T13:30:31.746Z,4.07
2018-07-16T13:33:02.107Z,3.70
2018-07-16T13:35:31.828Z,4.10
2018-07-16T13:38:01.502Z,3.70
2018-07-16T13:40:30.910Z,4.30
2018-07-16T13:43:00.268Z,4.50
2018-07-16T13:45:29.683Z,4.87
2018-07-16T13:47:59.069Z,5.17
2018-07-16T13:50:28.831Z,5.10
2018-07-16T13:52:58.233Z,4.40
2018-07-16T13:55:27.633Z,4.90
2018-07-16T13:57:56.973Z,4.20
2018-07-16T14:00:26.766Z,4.13
2018-07-16T14:02:56.147Z,4.83
2018-07-16T14:05:25.514Z,4.30
2018-07-16T14:07:54.875Z,4.20
2018-07-16T14:10:25.814Z,3.87
2018-07-16T14:12:55.972Z,3.40
2018-07-16T14:15:25.384Z,3.87
2018-07-16T14:17:54.741Z,4.30
2018-07-16T14:20:24.710Z,3.97
2018-07-16T14:22:54.057Z,4.40
2018-07-16T14:25:23.416Z,5.17
2018-07-16T14:27:52.797Z,4.63
2018-07-16T14:30:22.729Z,5.80
2018-07-16T14:32:52.892Z,5.83
2018-07-16T14:35:22.318Z,5.23
2018-07-16T14:37:51.843Z,6.53
2018-07-16T14:40:21.327Z,5.60
2018-07-16T14:42:51.236Z,5.43
2018-07-16T14:45:24.894Z,6.33
2018-07-16T14:47:54.420Z,6.57
2018-07-16T14:50:23.959Z,5.87
2018-07-16T14:52:53.552Z,4.90
2018-07-16T14:55:22.968Z,4.77
2018-07-16T14:57:52.352Z,4.57
2018-07-16T15:00:21.758Z,5.67
2018-07-16T15:02:51.112Z,6.47
2018-07-16T15:05:20.556Z,5.30
2018-07-16T15:07:49.959Z,5.57
2018-07-16T15:10:19.281Z,5.87
2018-07-16T15:12:48.636Z,5.93
2018-07-16T15:15:32.489Z,6.10
2018-07-16T15:18:02.512Z,6.27
2018-07-16T15:20:32.041Z,6.97
2018-07-16T15:23:01.477Z,6.80
2018-07-16T15:25:30.877Z,6.00
2018-07-16T15:28:00.674Z,6.80
2018-07-16T15:30:30.073Z,4.70
2018-07-16T15:32:59.447Z,5.47
2018-07-16T15:35:28.802Z,4.80
2018-07-16T15:37:58.199Z,4.80
2018-07-16T15:40:27.653Z,3.70
2018-07-16T15:42:57.009Z,3.93
2018-07-16T15:45:26.385Z,4.20
2018-07-16T15:47:55.789Z,5.17
2018-07-16T15:50:25.705Z,4.10
2018-07-16T15:52:55.192Z,3.60
2018-07-16T15:55:24.553Z,4.10
2018-07-16T15:57:54.245Z,3.50
2018-07-16T16:00:23.661Z,4.33
2018-07-16T16:02:53.027Z,3.57
2018-07-16T16:05:22.604Z,4.07
2018-07-16T16:07:51.944Z,4.07
2018-07-16T16:10:22.409Z,4.20
2018-07-16T16:12:52.135Z,3.87
2018-07-16T16:15:21.804Z,3.70
2018-07-16T16:17:51.176Z,3.87
2018-07-16T16:20:20.537Z,3.33
2018-07-16T16:22:50.237Z,3.10
2018-07-16T16:25:30.670Z,3.30
2018-07-16T16:28:00.054Z,3.50
2018-07-16T16:30:29.711Z,3.17
2018-07-16T16:32:59.314Z,2.30
2018-07-16T16:35:28.849Z,3.10
2018-07-16T16:37:58.351Z,2.83
2018-07-16T16:40:27.882Z,2.13
2018-07-16T16:42:57.279Z,3.00
2018-07-16T16:45:26.811Z,2.20
2018-07-16T16:47:56.432Z,2.20
2018-07-16T16:50:25.876Z,2.80
2018-07-16T16:52:55.510Z,2.27
2018-07-16T16:55:24.973Z,2.67
2018-07-16T16:57:54.337Z,2.47
2018-07-16T17:00:23.681Z,2.67
2018-07-16T17:02:53.070Z,2.50
2018-07-16T17:05:22.464Z,2.60
2018-07-16T17:07:51.954Z,2.47
2018-07-16T17:10:21.329Z,3.33
2018-07-16T17:12:50.672Z,2.07
2018-07-16T17:15:20.081Z,3.07
2018-07-16T17:17:49.457Z,2.90
2018-07-16T17:20:19.065Z,3.40
2018-07-16T17:22:49.360Z,3.20
2018-07-16T17:25:18.732Z,3.27
2018-07-16T17:27:48.712Z,3.37
2018-07-16T17:30:18.537Z,3.80
2018-07-16T17:32:48.513Z,2.93
2018-07-16T17:35:18.131Z,4.03
2018-07-16T17:37:47.517Z,3.10
2018-07-16T17:40:23.054Z,3.03
2018-07-16T17:42:52.477Z,2.83
2018-07-16T17:45:23.417Z,2.90
2018-07-16T17:47:52.853Z,3.53
2018-07-16T17:50:22.189Z,3.27
2018-07-16T17:52:51.548Z,2.90
2018-07-16T17:55:34.327Z,2.97
2018-07-16T17:58:05.341Z,3.43
2018-07-16T18:00:34.785Z,3.20
2018-07-16T18:03:04.200Z,3.43
2018-07-16T18:05:33.569Z,3.50
2018-07-16T18:08:02.987Z,3.87
2018-07-16T18:10:32.400Z,3.30
2018-07-16T18:13:01.760Z,3.83
2018-07-16T18:15:31.104Z,3.67
2018-07-16T18:18:00.497Z,3.37
2018-07-16T18:20:29.869Z,4.37
2018-07-16T18:22:59.236Z,4.33
2018-07-16T18:25:28.606Z,3.80
2018-07-16T18:27:57.976Z,4.23
2018-07-16T18:30:27.603Z,4.80
2018-07-16T18:32:57.008Z,3.73
2018-07-16T18:35:26.948Z,3.70
2018-07-16T18:37:56.503Z,4.03
2018-07-16T18:40:25.962Z,3.80
2018-07-16T18:42:55.417Z,4.37
2018-07-16T18:45:24.828Z,4.40
2018-07-16T18:47:54.589Z,4.03
2018-07-16T18:50:24.319Z,4.30
2018-07-16T18:52:53.693Z,4.50
2018-07-16T18:55:23.059Z,4.03
2018-07-16T18:57:52.623Z,3.70
2018-07-16T19:00:22.364Z,4.70
2018-07-16T19:02:51.944Z,4.43
2018-07-16T19:05:21.321Z,4.43
2018-07-16T19:07:51.457Z,4.60
2018-07-16T19:10:20.815Z,4.60
2018-07-16T19:12:50.260Z,4.87
2018-07-16T19:15:25.825Z,5.17
2018-07-16T19:17:56.218Z,4.67
2018-07-16T19:20:26.399Z,4.50
2018-07-16T19:22:55.900Z,5.73
2018-07-16T19:25:25.300Z,4.60
2018-07-16T19:27:54.639Z,5.27
2018-07-16T19:30:24.037Z,4.20
2018-07-16T19:32:53.432Z,4.90
2018-07-16T19:35:24.598Z,4.30
2018-07-16T19:37:54.592Z,3.83
2018-07-16T19:40:25.203Z,4.87
2018-07-16T19:42:54.561Z,4.47
2018-07-16T19:45:23.919Z,4.67
2018-07-16T19:47:53.283Z,4.70
2018-07-16T19:50:22.663Z,5.37
2018-07-16T19:52:52.051Z,6.10
2018-07-16T19:55:21.537Z,5.30
2018-07-16T19:57:51.013Z,5.23
2018-07-16T20:00:20.816Z,5.30
2018-07-16T20:02:50.538Z,5.30
2018-07-16T20:05:20.045Z,5.70
2018-07-16T20:07:49.404Z,8.90
2018-07-16T20:10:18.925Z,10.17
2018-07-16T20:12:48.285Z,4.37
2018-07-16T20:15:19.577Z,5.27
2018-07-16T20:17:49.122Z,4.30
2018-07-16T20:20:18.480Z,4.60
2018-07-16T20:22:48.056Z,5.03
2018-07-16T20:25:17.441Z,3.70
2018-07-16T20:27:47.141Z,3.77
2018-07-16T20:30:16.530Z,3.13
2018-07-16T20:32:45.964Z,4.10
2018-07-16T20:35:15.373Z,3.80
2018-07-16T20:37:44.751Z,3.33
2018-07-16T20:40:15.256Z,3.90
2018-07-16T20:42:44.621Z,3.30
2018-07-16T20:45:14.013Z,3.60
2018-07-16T20:47:43.381Z,4.20
2018-07-16T20:50:15.711Z,4.43
2018-07-16T20:52:45.154Z,3.70
2018-07-16T20:55:15.149Z,4.27
2018-07-16T20:57:44.532Z,4.60
2018-07-16T21:00:13.905Z,4.43
2018-07-16T21:02:43.250Z,4.40
2018-07-16T21:05:12.705Z,4.67
2018-07-16T21:07:42.079Z,4.73
2018-07-16T21:10:12.057Z,4.10
2018-07-16T21:12:41.533Z,4.10
2018-07-16T21:15:13.880Z,4.00
2018-07-16T21:17:43.453Z,3.90
2018-07-16T21:20:13.303Z,4.20
2018-07-16T21:22:42.691Z,4.10
2018-07-16T21:25:17.289Z,3.80
2018-07-16T21:27:47.188Z,3.80
2018-07-16T21:30:17.176Z,3.90
2018-07-16T21:32:46.708Z,4.17
2018-07-16T21:35:16.111Z,4.73
2018-07-16T21:37:45.517Z,6.17
2018-07-16T21:40:15.299Z,5.27
2018-07-16T21:42:44.835Z,5.30
2018-07-16T21:45:14.332Z,5.43
2018-07-16T21:47:43.745Z,7.77
2018-07-16T21:50:14.404Z,6.33
2018-07-16T21:52:43.947Z,4.80
2018-07-16T21:55:13.283Z,5.13
2018-07-16T21:57:42.668Z,3.93
2018-07-16T22:00:24.108Z,3.53
2018-07-16T22:02:53.480Z,3.87
2018-07-16T22:05:24.205Z,4.47
2018-07-16T22:07:53.584Z,4.30
2018-07-16T22:10:23.621Z,4.33
2018-07-16T22:12:53.030Z,4.37
2018-07-16T22:15:28.339Z,3.53
2018-07-16T22:17:58.568Z,4.00
2018-07-16T22:20:28.494Z,3.70
2018-07-16T22:22:58.868Z,4.37
2018-07-16T22:25:28.452Z,5.00
2018-07-16T22:27:57.848Z,3.80
2018-07-16T22:30:28.038Z,4.30
2018-07-16T22:32:57.503Z,3.97
2018-07-16T22:35:26.881Z,4.90
2018-07-16T22:37:56.224Z,4.77
2018-07-16T22:40:25.873Z,4.13
2018-07-16T22:42:55.309Z,4.47
2018-07-16T22:45:24.643Z,5.27
2018-07-16T22:47:54.052Z,5.27
2018-07-16T22:50:23.676Z,4.10
2018-07-16T22:52:53.041Z,5.90
2018-07-16T22:55:22.383Z,4.90
2018-07-16T22:57:51.739Z,4.20
2018-07-16T23:00:21.097Z,4.80
2018-07-16T23:02:50.597Z,5.00
2018-07-16T23:05:19.997Z,5.03
2018-07-16T23:07:49.349Z,4.97
2018-07-16T23:10:18.691Z,5.80
2018-07-16T23:12:48.874Z,5.93
2018-07-16T23:15:18.253Z,6.33
2018-07-16T23:17:47.613Z,5.57
2018-07-16T23:20:16.957Z,4.83
2018-07-16T23:22:50.828Z,4.70
2018-07-16T23:25:20.742Z,4.83
2018-07-16T23:27:50.472Z,5.00
2018-07-16T23:30:19.992Z,4.50
2018-07-16T23:32:49.365Z,4.13
2018-07-16T23:35:18.767Z,5.03
2018-07-16T23:37:48.194Z,4.83
2018-07-16T23:40:17.561Z,5.47
2018-07-16T23:42:46.895Z,5.40
2018-07-16T23:45:16.285Z,4.80
2018-07-16T23:47:45.636Z,4.50
2018-07-16T23:50:15.218Z,4.40
2018-07-16T23:52:44.738Z,4.77
2018-07-16T23:55:14.084Z,4.20
2018-07-16T23:57:43.433Z,4.13
